Saint Croix Beach, Minnesota
Current Conditions -  °F | °C
As of 3:51 AM on Wednesday 26 Nov 2014 (Local Time) from K21D Reporting Station
Overcast Overcast  
Wind Chill: 17°   Ceiling: 5500
Heat Index: 25°   Visibility: 10mi
Dew Point: 18°   Wind: 7mph
Humidity: 74%   Direction: 90°E
Pressure: 30.05"   Gusts: NA
Location:  44.9414°N, 92.7724°W
Report Text: K21D 260951Z AUTO 09006KT 10SM BKN055 BKN070 OVC080 M04/M08 A3005 RMK AO2
Loading
Personal Weather Stations






























Interactive Weather Map New forecast layout! Learn more

10-Day Weather Forecast

Advertisements
Track Severe Weather on mobile